Time;durP1;ratioP1;P1;durP2;ratioP2;P2;SDS_P1;SDS_P2;PMS_P1;PMS_P2;Temp;Humidity;BMP_temperature;BMP_pressure;BME280_temperature;BME280_humidity;BME280_pressure;Samples;Min_cycle;Max_cycle;Signal;HPM_P1;HPM_P2
2022/08/13 00:01:37;;;;;;;;;6.00;5.50;;;;;24.22;49.59;101704.84;5025095;28;8853;-66
2022/08/13 00:04:13;;;;;;;;;9.00;8.50;;;;;24.18;50.28;101704.56;5029326;28;8826;-66
2022/08/13 00:07:07;;;;;;;;;7.50;7.50;;;;;24.14;50.76;101710.81;5029423;28;8854;-66
2022/08/13 00:09:39;;;;;;;;;8.25;8.00;;;;;24.11;51.14;101709.47;5019578;28;8829;-65
2022/08/13 00:15:08;;;;;;;;;6.25;6.25;;;;;24.07;52.00;101708.31;5027881;28;9540;-65
2022/08/13 00:17:40;;;;;;;;;8.25;6.75;;;;;24.05;52.05;101712.41;5030685;28;8829;-65
2022/08/13 00:20:37;;;;;;;;;7.75;7.00;;;;;24.03;52.14;101709.94;5026669;28;8842;-65
2022/08/13 00:23:07;;;;;;;;;5.00;5.00;;;;;24.01;52.15;101706.63;5011463;28;9673;-66
2022/08/13 00:25:50;;;;;;;;;7.50;7.50;;;;;24.00;52.21;101715.13;5019441;28;8912;-65
2022/08/13 00:28:28;;;;;;;;;5.75;5.75;;;;;23.97;52.35;101708.22;5023576;28;8924;-66
2022/08/13 00:30:58;;;;;;;;;8.00;8.00;;;;;23.93;52.36;101704.34;5030139;28;8818;-65
2022/08/13 00:33:26;;;;;;;;;6.00;6.00;;;;;23.90;52.57;101702.97;5031058;28;8838;-66
2022/08/13 00:36:11;;;;;;;;;9.00;8.50;;;;;23.89;52.65;101705.97;5029906;28;8854;-66
2022/08/13 00:38:38;;;;;;;;;8.25;7.50;;;;;23.85;52.89;101704.84;5022263;28;8899;-66
2022/08/13 00:41:06;;;;;;;;;8.25;7.50;;;;;23.81;52.97;101707.28;5029381;28;8857;-66
2022/08/13 00:43:42;;;;;;;;;8.00;7.25;;;;;23.78;52.96;101698.72;5030122;28;8941;-66
2022/08/13 00:46:08;;;;;;;;;6.75;6.25;;;;;23.77;53.38;101706.13;5030663;28;8818;-66
2022/08/13 00:48:42;;;;;;;;;8.50;8.50;;;;;23.77;53.54;101708.88;5030615;28;8818;-66
2022/08/13 00:51:20;;;;;;;;;7.50;7.50;;;;;23.76;54.04;101704.50;5026645;28;8850;-66
2022/08/13 00:53:49;;;;;;;;;5.75;5.75;;;;;23.71;54.04;101698.94;5030774;28;8849;-65
2022/08/13 00:56:33;;;;;;;;;7.00;7.00;;;;;23.69;54.25;101695.63;5029544;28;8826;-65
2022/08/13 00:59:04;;;;;;;;;7.25;7.25;;;;;23.65;54.70;101700.81;5022327;28;8834;-65
2022/08/13 01:01:31;;;;;;;;;6.25;6.25;;;;;23.62;54.96;101700.50;5030398;28;8868;-65
2022/08/13 01:04:04;;;;;;;;;10.25;9.00;;;;;23.60;55.23;101703.47;5022578;28;8814;-65
2022/08/13 01:06:38;;;;;;;;;6.75;6.75;;;;;23.58;55.50;101696.59;5029215;28;8821;-65
2022/08/13 01:09:08;;;;;;;;;6.00;6.00;;;;;23.57;55.55;101700.44;5030274;28;8861;-65
2022/08/13 01:11:58;;;;;;;;;8.00;8.00;;;;;23.54;55.79;101699.03;5029581;28;9533;-65
2022/08/13 01:14:32;;;;;;;;;7.50;6.25;;;;;23.52;55.81;101698.47;5030330;28;8900;-65
2022/08/13 01:17:01;;;;;;;;;8.25;6.75;;;;;23.48;55.57;101704.75;5029964;28;8810;-64
2022/08/13 01:19:34;;;;;;;;;7.75;6.00;;;;;23.45;55.64;101703.31;5030772;28;8818;-64
2022/08/13 01:22:20;;;;;;;;;7.25;6.50;;;;;23.41;55.61;101700.25;5029215;28;8818;-65
2022/08/13 01:25:01;;;;;;;;;6.75;6.75;;;;;23.39;55.64;101702.47;5021896;28;8938;-65
2022/08/13 01:27:36;;;;;;;;;9.75;7.75;;;;;23.36;55.75;101699.41;5029911;28;8834;-65
2022/08/13 01:30:05;;;;;;;;;7.25;7.25;;;;;23.33;55.84;101705.41;5010466;28;9585;-65
2022/08/13 01:32:37;;;;;;;;;7.25;7.25;;;;;23.29;55.78;101699.59;5029994;28;8833;-64
2022/08/13 01:35:22;;;;;;;;;8.25;8.25;;;;;23.26;56.08;101700.13;5029718;28;8822;-66
2022/08/13 01:37:53;;;;;;;;;8.75;8.75;;;;;23.24;56.04;101702.28;5029738;28;8822;-66
2022/08/13 01:40:30;;;;;;;;;7.25;7.25;;;;;23.20;56.39;101704.72;5029190;28;9629;-67
2022/08/13 01:42:58;;;;;;;;;9.00;8.75;;;;;23.19;56.33;101707.72;5022073;28;8842;-67
2022/08/13 01:45:30;;;;;;;;;5.75;5.75;;;;;23.16;56.46;101702.75;5029995;28;8826;-67
2022/08/13 01:50:47;;;;;;;;;7.00;6.00;;;;;23.10;55.57;101701.88;5024183;28;9527;-66
2022/08/13 01:53:18;;;;;;;;;8.00;5.50;;;;;23.08;55.13;101706.78;5033843;28;8895;-67
2022/08/13 01:55:53;;;;;;;;;5.50;5.50;;;;;23.05;54.26;101701.81;5030593;28;8825;-65
2022/08/13 01:58:39;;;;;;;;;7.50;5.75;;;;;23.02;52.95;101701.50;5031125;28;8838;-66
2022/08/13 02:01:27;;;;;;;;;6.00;6.00;;;;;23.01;52.58;101706.16;5033543;28;9528;-67
2022/08/13 02:04:12;;;;;;;;;6.00;6.00;;;;;23.02;51.86;101701.50;5032908;28;8854;-66
2022/08/13 02:06:39;;;;;;;;;5.00;5.00;;;;;23.01;51.30;101705.31;5029026;28;9548;-67
2022/08/13 02:09:09;;;;;;;;;4.00;4.00;;;;;23.01;50.51;101703.44;5032943;28;9555;-66
2022/08/13 02:11:55;;;;;;;;;4.00;4.00;;;;;23.02;49.99;101699.59;5033432;28;8864;-66
2022/08/13 02:14:26;;;;;;;;;6.75;6.75;;;;;23.02;49.49;101704.25;5033580;28;8826;-66
2022/08/13 02:16:52;;;;;;;;;4.25;3.50;;;;;23.00;49.10;101703.66;5032920;28;8954;-65
2022/08/13 02:19:19;;;;;;;;;6.00;5.50;;;;;22.98;48.87;101705.84;5033496;28;8806;-64
2022/08/13 02:21:54;;;;;;;;;4.75;4.75;;;;;22.96;48.55;101697.84;5032681;28;8842;-65
2022/08/13 02:24:21;;;;;;;;;5.25;5.00;;;;;22.92;47.96;101697.53;5032337;28;8829;-65
2022/08/13 02:26:48;;;;;;;;;4.75;4.75;;;;;22.90;47.80;101705.19;5024933;28;8972;-65
2022/08/13 02:29:22;;;;;;;;;7.00;4.75;;;;;22.88;47.52;101704.59;5027631;28;8817;-63
2022/08/13 02:31:49;;;;;;;;;5.00;5.00;;;;;22.85;47.61;101705.13;5032877;28;8822;-65
2022/08/13 02:34:35;;;;;;;;;3.00;3.00;;;;;22.83;48.05;101706.44;5031820;28;8830;-64
2022/08/13 02:37:04;;;;;;;;;4.75;3.50;;;;;22.79;47.55;101699.81;5024922;28;8834;-63
2022/08/13 02:39:51;;;;;;;;;4.00;4.00;;;;;22.77;47.53;101712.94;5032169;28;8973;-64
2022/08/13 02:42:22;;;;;;;;;5.50;5.50;;;;;22.72;47.52;101705.47;5032870;28;8826;-64
2022/08/13 02:44:50;;;;;;;;;7.00;7.00;;;;;22.66;47.59;101703.75;5031752;28;8853;-65
2022/08/13 02:47:22;;;;;;;;;5.25;5.25;;;;;22.61;47.58;101696.28;5032712;28;8834;-64
2022/08/13 02:49:59;;;;;;;;;5.00;5.00;;;;;22.58;47.02;101704.19;5033041;28;8826;-64
2022/08/13 02:52:29;;;;;;;;;4.75;4.50;;;;;22.56;47.21;101704.44;5017523;28;8836;-65
2022/08/13 02:54:55;;;;;;;;;6.50;6.50;;;;;22.52;47.30;101706.03;5023308;28;8810;-65
2022/08/13 02:57:24;;;;;;;;;7.00;5.00;;;;;22.47;47.39;101703.22;5032414;28;8863;-64
2022/08/13 02:59:53;;;;;;;;;6.75;5.75;;;;;22.44;47.28;101698.22;5032232;28;8896;-65
2022/08/13 03:02:44;;;;;;;;;5.00;3.75;;;;;22.43;47.23;101702.06;5030155;28;8964;-64
2022/08/13 03:05:17;;;;;;;;;4.00;4.00;;;;;22.40;47.29;101699.81;5031735;28;8899;-65
2022/08/13 03:07:47;;;;;;;;;5.50;5.50;;;;;22.37;47.06;101705.81;5026724;28;8951;-64
2022/08/13 03:10:21;;;;;;;;;5.25;5.25;;;;;22.33;47.11;101704.66;5031589;28;8814;-64
2022/08/13 03:13:15;;;;;;;;;6.00;5.50;;;;;22.29;47.38;101700.78;5031863;28;8818;-64
2022/08/13 03:15:52;;;;;;;;;5.00;5.00;;;;;22.24;47.25;101704.28;5031562;28;8822;-64
2022/08/13 03:18:28;;;;;;;;;5.75;5.75;;;;;22.20;47.31;101705.81;5022987;28;8967;-64
2022/08/13 03:21:18;;;;;;;;;5.00;5.00;;;;;22.17;47.31;101704.44;5021988;28;8978;-65
2022/08/13 03:24:07;;;;;;;;;6.00;4.00;;;;;22.13;47.27;101713.41;5024008;28;8830;-65
2022/08/13 03:26:33;;;;;;;;;4.25;4.25;;;;;22.10;47.30;101701.00;5031038;28;9601;-65
2022/08/13 03:29:03;;;;;;;;;5.50;5.50;;;;;22.06;47.29;101704.50;5025040;28;8810;-65
2022/08/13 03:31:34;;;;;;;;;4.25;4.25;;;;;22.03;47.10;101707.72;5020798;28;8841;-65
2022/08/13 03:34:21;;;;;;;;;6.75;6.75;;;;;22.01;47.16;101704.41;5033963;28;8810;-63
2022/08/13 03:36:48;;;;;;;;;4.50;4.50;;;;;21.96;46.99;101705.16;5029889;28;9642;-64
2022/08/13 03:39:16;;;;;;;;;5.25;5.25;;;;;21.94;46.87;101699.09;5031370;28;8806;-64
2022/08/13 03:41:43;;;;;;;;;5.00;5.00;;;;;21.91;47.01;101702.31;5029836;28;8880;-65
2022/08/13 03:44:17;;;;;;;;;5.25;5.25;;;;;21.89;47.21;101699.00;5020042;28;8832;-64
2022/08/13 03:46:55;;;;;;;;;3.75;3.75;;;;;21.87;47.04;101712.13;5029221;28;8830;-65
2022/08/13 03:49:22;;;;;;;;;5.25;5.25;;;;;21.83;46.86;101700.81;5030494;28;8838;-65
2022/08/13 03:51:54;;;;;;;;;5.00;5.00;;;;;21.79;46.57;101713.34;5029799;28;8845;-65
2022/08/13 03:54:22;;;;;;;;;5.25;5.25;;;;;21.77;46.67;101701.00;5030580;28;8849;-65
2022/08/13 03:56:52;;;;;;;;;5.00;5.00;;;;;21.72;46.73;101699.84;5030139;28;8830;-65
2022/08/13 03:59:22;;;;;;;;;4.00;4.00;;;;;21.69;46.61;101703.06;5011060;28;8839;-65
2022/08/13 04:02:03;;;;;;;;;5.50;5.50;;;;;21.65;46.71;101707.38;5070997;27;13449;-66
2022/08/13 04:04:32;;;;;;;;;4.75;4.75;;;;;21.69;46.46;101702.22;5046779;28;8836;-66
2022/08/13 04:07:01;;;;;;;;;6.50;6.50;;;;;21.69;46.50;101703.06;5046115;28;9558;-65
2022/08/13 04:09:28;;;;;;;;;6.00;4.50;;;;;21.69;46.41;101702.22;5048381;28;8847;-65
2022/08/13 04:11:55;;;;;;;;;4.00;4.00;;;;;21.66;46.39;101705.47;5046875;28;8829;-64
2022/08/13 04:14:31;;;;;;;;;5.75;4.25;;;;;21.62;46.60;101707.88;5049478;28;8941;-64
2022/08/13 04:17:10;;;;;;;;;6.00;6.00;;;;;21.61;46.61;101706.22;5047331;28;8840;-64
2022/08/13 04:19:40;;;;;;;;;6.75;6.75;;;;;21.57;46.36;101702.31;5046431;28;8820;-64
2022/08/13 04:22:10;;;;;;;;;4.00;4.00;;;;;21.56;46.82;101708.03;5046470;28;8809;-65
2022/08/13 04:24:36;;;;;;;;;4.75;4.75;;;;;21.53;46.91;101706.59;5047247;28;8848;-65
2022/08/13 04:27:06;;;;;;;;;7.00;6.25;;;;;21.50;46.99;101700.78;5047087;28;8904;-65
2022/08/13 04:29:33;;;;;;;;;7.50;5.25;;;;;21.48;46.96;101703.78;5045392;28;8975;-65
2022/08/13 04:32:15;;;;;;;;;4.00;4.00;;;;;21.47;47.03;101702.09;5049392;28;8836;-65
2022/08/13 04:34:52;;;;;;;;;4.75;4.75;;;;;21.47;46.94;101702.09;5046381;28;8817;-65
2022/08/13 04:37:25;;;;;;;;;3.25;3.25;;;;;21.46;46.56;101700.44;5046889;28;9554;-65
2022/08/13 04:40:12;;;;;;;;;4.50;4.50;;;;;21.45;46.71;101699.63;5046795;28;8984;-65
2022/08/13 04:42:55;;;;;;;;;6.75;6.75;;;;;21.45;46.68;101690.56;5046827;28;8899;-65
2022/08/13 04:45:23;;;;;;;;;9.00;7.75;;;;;21.45;46.75;101696.06;5045809;28;8890;-64
2022/08/13 04:47:58;;;;;;;;;0.50;0.50;;;;;21.43;47.01;101695.44;5046219;28;8836;-65
2022/08/13 04:50:27;;;;;;;;;5.00;5.00;;;;;21.40;46.79;101691.31;5046848;28;8836;-65
2022/08/13 04:52:55;;;;;;;;;4.00;4.00;;;;;21.39;47.01;101694.28;5046654;28;8820;-65
2022/08/13 04:55:22;;;;;;;;;5.25;5.25;;;;;21.38;47.12;101703.59;5046856;28;8833;-65
2022/08/13 04:57:49;;;;;;;;;3.50;3.50;;;;;21.37;47.19;101701.94;5046436;28;8820;-65
2022/08/13 05:00:31;;;;;;;;;6.00;6.00;;;;;21.38;47.34;101703.59;5053207;28;8863;-65
2022/08/13 05:03:29;;;;;;;;;7.25;6.25;;;;;21.39;47.59;101710.72;5067750;28;9507;-65
2022/08/13 05:06:19;;;;;;;;;5.50;4.50;;;;;21.41;47.75;101711.31;5040954;28;8836;-65
2022/08/13 05:08:50;;;;;;;;;4.00;3.50;;;;;21.40;47.71;101709.66;5066405;28;8814;-66
2022/08/13 05:11:21;;;;;;;;;3.25;3.25;;;;;21.41;47.62;101703.09;5065146;28;8815;-65
2022/08/13 05:13:48;;;;;;;;;4.50;4.50;;;;;21.41;47.69;101714.06;5052788;28;8830;-65
2022/08/13 05:16:22;;;;;;;;;5.25;5.25;;;;;21.41;47.64;101717.63;5051998;28;8817;-65
2022/08/13 05:18:54;;;;;;;;;3.00;3.00;;;;;21.43;47.91;101712.75;5052954;28;8833;-65
2022/08/13 05:21:24;;;;;;;;;4.25;4.25;;;;;21.44;48.01;101708.09;5052115;28;8914;-66
2022/08/13 05:24:11;;;;;;;;;3.75;3.75;;;;;21.43;47.80;101700.94;5046523;28;8852;-66
2022/08/13 05:26:58;;;;;;;;;5.25;4.50;;;;;21.46;47.39;101706.75;5050462;28;8982;-65
2022/08/13 05:29:34;;;;;;;;;5.00;4.50;;;;;21.49;47.36;101710.91;5052537;28;8837;-64
2022/08/13 05:32:16;;;;;;;;;4.25;3.75;;;;;21.52;46.97;101707.69;5057118;28;8830;-65
2022/08/13 05:34:43;;;;;;;;;5.25;5.25;;;;;21.54;46.41;101712.91;5052484;28;9565;-66
2022/08/13 05:37:16;;;;;;;;;3.75;3.75;;;;;21.56;46.50;101711.59;5050383;28;8840;-65
2022/08/13 05:40:03;;;;;;;;;5.25;5.25;;;;;21.60;46.56;101704.56;5044337;28;8883;-64
2022/08/13 05:42:33;;;;;;;;;4.50;4.00;;;;;21.62;46.10;101710.59;5055890;28;8814;-65
2022/08/13 05:45:00;;;;;;;;;5.00;5.00;;;;;21.63;45.69;101703.22;5050324;28;8852;-65
2022/08/13 05:47:27;;;;;;;;;4.75;4.00;;;;;21.68;45.50;101703.31;5051055;28;8904;-64
2022/08/13 05:50:13;;;;;;;;;4.25;4.25;;;;;21.71;45.13;101706.41;5049978;28;8844;-65
2022/08/13 05:52:43;;;;;;;;;3.25;3.25;;;;;21.75;45.22;101703.13;5052292;28;8841;-64
2022/08/13 05:55:15;;;;;;;;;6.00;6.00;;;;;21.72;44.87;101697.09;5052689;28;8934;-65
2022/08/13 05:58:04;;;;;;;;;4.25;4.25;;;;;21.77;44.75;101710.06;5054858;28;8814;-65
2022/08/13 06:03:37;;;;;;;;;5.00;5.00;;;;;21.79;44.79;101705.13;5056793;28;8813;-66
2022/08/13 06:06:24;;;;;;;;;4.00;4.00;;;;;21.88;44.61;101713.81;5052185;28;8836;-66
2022/08/13 06:09:03;;;;;;;;;4.75;4.75;;;;;21.97;44.20;101709.56;5052870;28;8814;-65
2022/08/13 06:11:36;;;;;;;;;7.25;6.00;;;;;22.06;44.38;101709.97;5051807;28;8825;-66
2022/08/13 06:14:23;;;;;;;;;4.25;3.25;;;;;22.15;44.32;101703.84;5050866;28;8845;-66
2022/08/13 06:16:59;;;;;;;;;4.00;4.00;;;;;22.23;43.93;101704.50;5051643;28;8852;-66
2022/08/13 06:19:27;;;;;;;;;1.75;1.75;;;;;22.29;43.71;101698.84;5050534;28;8841;-66
2022/08/13 06:22:01;;;;;;;;;3.50;3.00;;;;;22.34;44.20;101706.31;5049901;28;8838;-65
2022/08/13 06:24:35;;;;;;;;;3.25;3.25;;;;;22.43;44.00;101699.31;5050683;28;8825;-66
2022/08/13 06:27:24;;;;;;;;;3.50;3.50;;;;;22.49;44.53;101698.31;5051154;28;8822;-65
2022/08/13 06:30:16;;;;;;;;;4.00;4.00;;;;;22.58;44.51;101698.72;5044901;28;8923;-66
2022/08/13 06:33:02;;;;;;;;;3.50;3.50;;;;;22.63;44.30;101701.50;5051665;28;8833;-66
2022/08/13 06:35:58;;;;;;;;;2.75;1.75;;;;;22.67;44.01;101705.41;5050820;28;8930;-66
2022/08/13 06:38:28;;;;;;;;;5.25;4.00;;;;;22.68;43.99;101707.06;5051092;28;8833;-66
2022/08/13 06:41:00;;;;;;;;;3.00;3.00;;;;;22.71;43.68;101712.06;5051289;28;8847;-65
2022/08/13 06:43:31;;;;;;;;;4.25;4.25;;;;;22.71;43.85;101703.81;5051141;28;8854;-65
2022/08/13 06:46:22;;;;;;;;;3.00;3.00;;;;;22.73;43.55;101707.16;5051343;28;9495;-65
2022/08/13 06:48:55;;;;;;;;;6.00;5.00;;;;;22.74;43.58;101706.06;5050284;28;8900;-65
2022/08/13 06:51:22;;;;;;;;;3.25;3.25;;;;;22.73;43.66;101703.56;5051016;28;8968;-64
2022/08/13 06:53:49;;;;;;;;;3.00;3.00;;;;;22.74;43.78;101706.06;5051005;28;8830;-66
2022/08/13 06:56:37;;;;;;;;;5.00;4.00;;;;;22.77;43.76;101708.31;5063704;28;8814;-66
2022/08/13 06:59:06;;;;;;;;;3.50;3.50;;;;;22.79;43.40;101708.88;5050973;28;8833;-65
2022/08/13 07:01:46;;;;;;;;;1.00;1.00;;;;;22.83;43.48;101706.44;5050881;28;8830;-66
2022/08/13 07:04:33;;;;;;;;;3.75;3.00;;;;;22.88;43.52;101714.75;5047321;28;8823;-65
2022/08/13 07:07:03;;;;;;;;;5.00;5.00;;;;;22.89;43.40;101709.00;5053952;28;9506;-66
2022/08/13 07:09:31;;;;;;;;;4.50;4.50;;;;;22.92;43.27;101710.44;5054512;28;8825;-66
2022/08/13 07:12:12;;;;;;;;;2.75;2.75;;;;;22.94;43.39;101716.50;5050887;28;8899;-66
2022/08/13 07:14:44;;;;;;;;;7.00;6.00;;;;;23.04;43.55;101711.13;5051071;28;8818;-65
2022/08/13 07:17:13;;;;;;;;;3.25;3.25;;;;;23.09;43.31;101708.47;5049233;28;9530;-66
2022/08/13 07:19:40;;;;;;;;;5.25;3.50;;;;;23.16;43.46;101714.56;5049789;28;8933;-65
2022/08/13 07:22:27;;;;;;;;;3.25;3.25;;;;;23.18;43.10;101709.66;5050175;28;8834;-66
2022/08/13 07:25:14;;;;;;;;;4.00;3.25;;;;;23.23;42.81;101713.53;5050482;28;8822;-66
2022/08/13 07:27:41;;;;;;;;;4.75;4.50;;;;;23.27;43.43;101712.78;5050326;28;8906;-66
2022/08/13 07:30:14;;;;;;;;;3.00;3.00;;;;;23.35;43.66;101719.72;5049939;28;8938;-66
2022/08/13 07:32:42;;;;;;;;;3.00;3.00;;;;;23.42;43.63;101717.59;5049790;28;8814;-66
2022/08/13 07:35:11;;;;;;;;;4.75;4.25;;;;;23.50;42.61;101727.28;5049000;28;8864;-66
2022/08/13 07:37:45;;;;;;;;;4.00;4.00;;;;;23.52;43.12;101711.38;5064619;28;8911;-65
2022/08/13 07:40:19;;;;;;;;;4.75;4.75;;;;;23.54;42.86;101718.28;5050249;28;8821;-66
2022/08/13 07:42:49;;;;;;;;;6.00;6.00;;;;;23.59;42.50;101710.06;5050211;28;8841;-66
2022/08/13 07:45:25;;;;;;;;;3.25;3.25;;;;;23.65;42.74;101717.31;5050138;28;8983;-65
2022/08/13 07:48:12;;;;;;;;;3.50;3.50;;;;;23.73;42.61;101717.91;5048646;28;9605;-67
2022/08/13 07:51:00;;;;;;;;;6.00;4.75;;;;;23.80;42.38;101718.53;5045739;28;8911;-65
2022/08/13 07:53:35;;;;;;;;;4.25;4.25;;;;;23.87;42.22;101716.41;5055350;28;8934;-67
2022/08/13 07:56:29;;;;;;;;;3.00;3.00;;;;;23.93;41.40;101721.69;5049814;28;8942;-66
2022/08/13 07:59:03;;;;;;;;;5.00;5.00;;;;;23.98;41.50;101726.38;5042020;28;8811;-66
2022/08/13 08:01:34;;;;;;;;;3.75;3.25;;;;;24.04;41.35;101725.34;5049678;28;8831;-66
2022/08/13 08:04:24;;;;;;;;;6.50;6.50;;;;;24.12;41.32;101716.59;5048725;28;8912;-66
2022/08/13 08:06:57;;;;;;;;;5.25;4.25;;;;;24.16;41.03;101727.91;5049820;28;8807;-66
2022/08/13 08:09:29;;;;;;;;;4.00;4.00;;;;;24.20;40.91;101728.22;5051479;28;8830;-66
2022/08/13 08:14:50;;;;;;;;;5.00;5.00;;;;;24.34;40.47;101719.22;5055497;28;8867;-67
2022/08/13 08:17:26;;;;;;;;;4.75;4.75;;;;;24.37;40.57;101728.88;5054576;28;8821;-66
2022/08/13 08:20:24;;;;;;;;;4.00;3.00;;;;;24.42;39.62;101731.69;5030035;28;8828;-66
2022/08/13 08:23:05;;;;;;;;;6.00;5.00;;;;;24.43;39.51;101727.88;5030141;28;9550;-66
2022/08/13 08:25:37;;;;;;;;;4.00;4.00;;;;;24.45;39.43;101733.09;5030062;28;8821;-66
2022/08/13 08:28:25;;;;;;;;;3.00;3.00;;;;;24.49;39.56;101729.53;5050398;28;8826;-66
2022/08/13 08:31:06;;;;;;;;;5.00;5.00;;;;;24.51;39.63;101727.38;5032697;28;9937;-66
2022/08/13 08:33:55;;;;;;;;;4.75;4.75;;;;;24.61;40.17;101724.66;5049081;28;8834;-67
2022/08/13 08:36:23;;;;;;;;;4.25;4.25;;;;;24.70;41.62;101732.41;5065296;28;8826;-67
2022/08/13 08:44:41;;;;;;;;;4.00;4.00;;;;;24.83;43.70;101737.44;5056785;28;8846;-67
2022/08/13 08:47:09;;;;;;;;;5.00;5.00;;;;;24.89;43.99;101739.13;5050341;28;8822;-67
2022/08/13 08:49:38;;;;;;;;;5.00;5.00;;;;;24.97;43.86;101740.53;5053411;28;8848;-66
2022/08/13 08:52:11;;;;;;;;;4.75;4.50;;;;;25.02;43.80;101740.56;5053571;28;8850;-65
2022/08/13 08:54:45;;;;;;;;;5.50;4.75;;;;;25.01;43.76;101738.91;5058912;28;8814;-66
2022/08/13 08:57:18;;;;;;;;;6.00;5.50;;;;;25.03;43.62;101737.50;5052512;28;8813;-66
2022/08/13 08:59:46;;;;;;;;;5.00;5.00;;;;;25.09;43.15;101741.16;5051027;28;8838;-67
2022/08/13 09:02:24;;;;;;;;;5.25;4.75;;;;;25.12;42.85;101733.19;5053382;28;8837;-67
2022/08/13 09:04:54;;;;;;;;;6.00;6.00;;;;;25.18;43.11;101728.53;5064666;28;8851;-66
2022/08/13 09:07:45;;;;;;;;;5.00;5.00;;;;;25.24;43.02;101730.22;5033067;28;8816;-67
2022/08/13 09:10:17;;;;;;;;;4.75;4.75;;;;;25.27;42.66;101737.91;5048603;28;8854;-67
2022/08/13 09:12:56;;;;;;;;;5.50;5.50;;;;;25.35;42.54;101734.63;5046330;28;8814;-67
2022/08/13 09:15:23;;;;;;;;;4.50;4.50;;;;;25.40;42.67;101734.66;5068485;28;8911;-67
2022/08/13 09:17:51;;;;;;;;;4.00;4.00;;;;;25.45;42.32;101728.31;5067920;28;8866;-67
2022/08/13 09:20:21;;;;;;;;;6.25;6.25;;;;;25.50;42.01;101731.09;5052701;28;8831;-66
2022/08/13 09:23:12;;;;;;;;;5.25;5.25;;;;;25.63;41.45;101727.78;5050575;28;8854;-67
2022/08/13 09:25:50;;;;;;;;;5.25;5.25;;;;;25.65;40.97;101733.88;5052814;28;8865;-66
2022/08/13 09:28:23;;;;;;;;;5.00;5.00;;;;;25.72;41.25;101725.31;5058864;28;8825;-67
2022/08/13 09:31:04;;;;;;;;;6.00;6.00;;;;;25.85;40.30;101719.31;5048446;28;8842;-66
2022/08/13 09:33:38;;;;;;;;;5.50;5.25;;;;;25.91;39.60;101719.28;5052739;28;8814;-68
2022/08/13 09:36:27;;;;;;;;;5.00;5.00;;;;;25.98;38.31;101725.38;5052515;28;8821;-66
2022/08/13 09:38:55;;;;;;;;;6.25;6.25;;;;;26.00;37.82;101718.44;5052282;28;8856;-67
2022/08/13 09:41:32;;;;;;;;;6.00;6.00;;;;;26.05;37.64;101714.84;5052453;28;9630;-67
2022/08/13 09:44:04;;;;;;;;;7.75;7.25;;;;;25.94;37.30;101718.75;5051214;28;9567;-67
2022/08/13 09:46:43;;;;;;;;;3.75;3.75;;;;;26.02;36.71;101720.94;5032233;28;8812;-67
2022/08/13 09:49:14;;;;;;;;;7.25;5.25;;;;;26.02;36.06;101726.47;5033667;28;8918;-68
2022/08/13 09:51:44;;;;;;;;;5.25;5.25;;;;;25.91;36.05;101719.28;5052265;28;8814;-66
2022/08/13 09:54:32;;;;;;;;;6.00;6.00;;;;;26.09;35.43;101714.06;5051095;28;9670;-67
2022/08/13 09:56:59;;;;;;;;;6.00;6.00;;;;;26.11;35.65;101714.59;5051078;28;8830;-67
2022/08/13 09:59:32;;;;;;;;;8.00;8.00;;;;;26.22;35.75;101709.91;5051816;28;8846;-66
2022/08/13 10:02:05;;;;;;;;;6.00;6.00;;;;;26.23;36.18;101705.19;5051878;28;8945;-66
2022/08/13 10:04:34;;;;;;;;;6.00;6.00;;;;;26.36;36.57;101704.63;5052180;28;8816;-66
2022/08/13 10:07:00;;;;;;;;;5.50;5.50;;;;;26.40;36.48;101694.66;5051674;28;8823;-67
2022/08/13 10:09:37;;;;;;;;;6.50;5.50;;;;;26.51;36.05;101699.09;5051980;28;9636;-67
2022/08/13 10:12:23;;;;;;;;;6.00;6.00;;;;;26.59;36.43;101690.22;5049578;28;8847;-67
2022/08/13 10:14:51;;;;;;;;;6.75;6.75;;;;;26.62;35.88;101686.91;5051649;28;8842;-67
2022/08/13 10:17:27;;;;;;;;;5.75;5.00;;;;;26.61;36.17;101687.16;5054966;28;8844;-67
2022/08/13 10:20:15;;;;;;;;;6.25;5.25;;;;;26.54;36.16;101687.50;5045355;28;8841;-68
2022/08/13 10:22:42;;;;;;;;;8.75;5.75;;;;;26.70;37.37;101679.13;5051543;28;8842;-67
2022/08/13 10:25:11;;;;;;;;;6.50;6.50;;;;;26.73;38.15;101681.34;5051328;28;8829;-67
2022/08/13 10:27:37;;;;;;;;;6.25;6.25;;;;;26.78;38.44;101678.53;5063067;28;9050;-67
2022/08/13 10:30:19;;;;;;;;;6.50;6.50;;;;;26.79;38.77;101675.50;5051561;28;8852;-67
2022/08/13 10:33:06;;;;;;;;;6.00;6.00;;;;;26.86;38.70;101678.81;5051516;28;8813;-67
2022/08/13 10:35:34;;;;;;;;;6.25;6.25;;;;;26.91;38.07;101677.13;5051292;28;8907;-67
2022/08/13 10:38:07;;;;;;;;;6.00;6.00;;;;;26.93;37.65;101670.19;5051207;28;8815;-67
2022/08/13 10:40:34;;;;;;;;;8.25;6.75;;;;;26.88;37.68;101671.03;5051040;28;9560;-68
2022/08/13 10:43:06;;;;;;;;;5.75;5.75;;;;;26.92;37.30;101668.53;5052759;28;8829;-67
2022/08/13 10:45:58;;;;;;;;;5.25;5.25;;;;;26.92;36.88;101667.72;5050840;28;8876;-66
2022/08/13 10:48:40;;;;;;;;;5.75;5.75;;;;;26.91;36.68;101660.56;5051124;28;8814;-67
2022/08/13 10:51:07;;;;;;;;;4.75;4.75;;;;;26.95;37.11;101667.97;5051081;28;8837;-67
2022/08/13 10:56:23;;;;;;;;;4.50;4.50;;;;;27.03;37.89;101672.09;5050291;28;8810;-68
2022/08/13 10:58:53;;;;;;;;;5.75;5.75;;;;;27.08;37.88;101672.06;5050841;28;8854;-66
2022/08/13 11:01:23;;;;;;;;;6.50;6.00;;;;;27.11;37.64;101675.09;5051202;28;8944;-66
2022/08/13 11:03:57;;;;;;;;;5.00;5.00;;;;;27.11;37.85;101666.81;5049569;28;8838;-67
2022/08/13 11:06:33;;;;;;;;;6.25;6.25;;;;;27.21;37.71;101671.44;5050714;28;8820;-66
2022/08/13 11:09:01;;;;;;;;;5.25;5.25;;;;;27.20;36.71;101663.44;5050587;28;8938;-66
2022/08/13 11:11:47;;;;;;;;;5.75;5.75;;;;;27.24;36.86;101670.06;5049005;28;8916;-66
2022/08/13 11:14:24;;;;;;;;;6.50;6.50;;;;;27.31;36.21;101670.56;5054234;28;8839;-66
2022/08/13 11:16:58;;;;;;;;;7.00;7.00;;;;;27.33;35.51;101665.56;5050447;28;8822;-66
2022/08/13 11:19:30;;;;;;;;;6.00;6.00;;;;;27.32;35.90;101661.97;5049960;28;8834;-66
2022/08/13 11:22:18;;;;;;;;;5.75;5.75;;;;;27.39;35.07;101656.13;5044697;28;8855;-66
2022/08/13 11:25:00;;;;;;;;;8.00;7.00;;;;;27.45;35.40;101648.63;5052026;28;8891;-66
2022/08/13 11:27:48;;;;;;;;;6.25;6.25;;;;;27.49;35.33;101647.75;5050485;28;8846;-66
2022/08/13 11:30:19;;;;;;;;;6.00;6.00;;;;;27.46;35.16;101647.50;5050244;28;8830;-66
2022/08/13 11:33:04;;;;;;;;;7.00;7.00;;;;;27.44;35.05;101646.97;5049699;28;8911;-66
2022/08/13 11:35:40;;;;;;;;;5.50;5.50;;;;;27.45;34.80;101641.13;5048725;28;9600;-67
2022/08/13 11:38:16;;;;;;;;;5.50;5.50;;;;;27.48;34.92;101640.56;5050003;28;8814;-67
2022/08/13 11:40:52;;;;;;;;;5.25;5.25;;;;;27.53;34.19;101636.94;5051931;28;8834;-67
2022/08/13 11:43:22;;;;;;;;;8.00;7.00;;;;;27.58;33.74;101634.94;5049072;28;8855;-66
2022/08/13 11:46:08;;;;;;;;;6.25;6.25;;;;;27.68;34.58;101636.00;5049144;28;8849;-66
2022/08/13 11:48:35;;;;;;;;;6.00;6.00;;;;;27.76;34.32;101630.69;5049460;28;8940;-66
2022/08/13 11:51:06;;;;;;;;;5.25;5.25;;;;;27.73;35.65;101628.50;5057530;28;8899;-65
2022/08/13 11:53:33;;;;;;;;;7.25;6.50;;;;;27.68;35.07;101622.97;5050420;28;8842;-65
2022/08/13 11:56:19;;;;;;;;;6.25;6.25;;;;;27.72;35.70;101617.69;5054482;28;8836;-65
2022/08/13 11:58:51;;;;;;;;;9.50;7.25;;;;;27.71;35.89;101619.63;5050235;28;8825;-65
2022/08/13 12:01:25;;;;;;;;;5.00;5.00;;;;;27.78;35.13;101620.13;5065417;28;8825;-66
2022/08/13 12:04:07;;;;;;;;;5.00;5.00;;;;;27.85;35.30;101619.81;5050221;28;8822;-66
2022/08/13 12:06:48;;;;;;;;;8.50;8.50;;;;;27.95;34.62;101616.91;5049757;28;8814;-65
2022/08/13 12:09:20;;;;;;;;;5.25;5.25;;;;;28.05;34.24;101625.13;5053130;28;9601;-66
2022/08/13 12:12:07;;;;;;;;;6.00;6.00;;;;;28.13;34.47;101617.31;5041553;28;8993;-66
2022/08/13 12:14:47;;;;;;;;;8.00;6.75;;;;;28.17;33.88;101616.44;5049477;28;8833;-65
2022/08/13 12:17:15;;;;;;;;;6.75;6.75;;;;;28.20;33.49;101617.78;5049801;28;8822;-66
2022/08/13 12:19:47;;;;;;;;;4.75;4.75;;;;;28.24;32.69;101613.31;5048682;28;8838;-63
2022/08/13 12:22:15;;;;;;;;;3.75;3.75;;;;;28.25;32.16;101614.97;5051221;28;8837;-58
2022/08/13 12:24:42;;;;;;;;;5.00;5.00;;;;;28.25;32.35;101610.25;5052686;28;8822;-66
2022/08/13 12:27:28;;;;;;;;;6.00;5.25;;;;;28.23;32.43;101612.47;5053754;28;8850;-66
2022/08/13 12:30:12;;;;;;;;;4.00;4.00;;;;;28.30;32.78;101599.09;5053870;28;8827;-66
2022/08/13 12:32:46;;;;;;;;;4.00;4.00;;;;;28.35;33.03;101603.75;5058364;28;8900;-66